sensor_id;sensor_type;location;lat;lon;timestamp;temperature;humidity
19044;DHT22;9654;52.302;8.120;2023-04-24T00:00:38;11.10;99.90
19044;DHT22;9654;52.302;8.120;2023-04-24T00:03:06;11.10;99.90
19044;DHT22;9654;52.302;8.120;2023-04-24T00:05:33;11.10;99.90
19044;DHT22;9654;52.302;8.120;2023-04-24T00:08:00;11.00;99.90
19044;DHT22;9654;52.302;8.120;2023-04-24T00:10:26;11.10;99.90
19044;DHT22;9654;52.302;8.120;2023-04-24T00:12:54;11.00;99.90
19044;DHT22;9654;52.302;8.120;2023-04-24T00:15:22;11.00;99.90
19044;DHT22;9654;52.302;8.120;2023-04-24T00:17:48;11.00;99.90
19044;DHT22;9654;52.302;8.120;2023-04-24T00:20:15;11.00;99.90
19044;DHT22;9654;52.302;8.120;2023-04-24T00:22:42;11.00;99.90
19044;DHT22;9654;52.302;8.120;2023-04-24T00:25:09;11.00;99.90
19044;DHT22;9654;52.302;8.120;2023-04-24T00:27:36;11.00;99.90
19044;DHT22;9654;52.302;8.120;2023-04-24T00:30:06;11.00;99.90
19044;DHT22;9654;52.302;8.120;2023-04-24T00:32:33;11.00;99.90
19044;DHT22;9654;52.302;8.120;2023-04-24T00:35:00;11.00;99.90
19044;DHT22;9654;52.302;8.120;2023-04-24T00:37:27;10.90;99.90
19044;DHT22;9654;52.302;8.120;2023-04-24T00:39:54;11.00;99.90
19044;DHT22;9654;52.302;8.120;2023-04-24T00:42:20;11.00;99.90
19044;DHT22;9654;52.302;8.120;2023-04-24T00:44:47;10.90;99.90
19044;DHT22;9654;52.302;8.120;2023-04-24T00:47:16;10.90;99.90
19044;DHT22;9654;52.302;8.120;2023-04-24T00:49:43;10.90;99.90
19044;DHT22;9654;52.302;8.120;2023-04-24T00:52:10;10.90;99.90
19044;DHT22;9654;52.302;8.120;2023-04-24T00:54:37;10.90;99.90
19044;DHT22;9654;52.302;8.120;2023-04-24T00:57:05;11.00;99.90
19044;DHT22;9654;52.302;8.120;2023-04-24T00:59:32;11.00;99.90
19044;DHT22;9654;52.302;8.120;2023-04-24T01:01:59;11.00;99.90
19044;DHT22;9654;52.302;8.120;2023-04-24T01:04:27;11.00;99.90
19044;DHT22;9654;52.302;8.120;2023-04-24T01:06:55;11.00;99.90
19044;DHT22;9654;52.302;8.120;2023-04-24T01:09:23;11.00;99.90
19044;DHT22;9654;52.302;8.120;2023-04-24T01:11:50;11.00;99.90
19044;DHT22;9654;52.302;8.120;2023-04-24T01:14:17;11.00;99.90
19044;DHT22;9654;52.302;8.120;2023-04-24T01:16:44;11.00;99.90
19044;DHT22;9654;52.302;8.120;2023-04-24T01:19:11;11.00;99.90
19044;DHT22;9654;52.302;8.120;2023-04-24T01:21:40;11.00;99.90
19044;DHT22;9654;52.302;8.120;2023-04-24T01:24:09;11.00;99.90
19044;DHT22;9654;52.302;8.120;2023-04-24T01:26:36;11.00;99.90
19044;DHT22;9654;52.302;8.120;2023-04-24T01:29:03;11.00;99.90
19044;DHT22;9654;52.302;8.120;2023-04-24T01:31:30;10.90;99.90
19044;DHT22;9654;52.302;8.120;2023-04-24T01:33:57;10.90;99.90
19044;DHT22;9654;52.302;8.120;2023-04-24T01:36:24;10.90;99.90
19044;DHT22;9654;52.302;8.120;2023-04-24T01:38:52;11.00;99.90
19044;DHT22;9654;52.302;8.120;2023-04-24T01:41:21;11.00;99.90
19044;DHT22;9654;52.302;8.120;2023-04-24T01:43:48;11.00;99.90
19044;DHT22;9654;52.302;8.120;2023-04-24T01:46:15;11.00;99.90
19044;DHT22;9654;52.302;8.120;2023-04-24T01:48:42;11.00;99.90
19044;DHT22;9654;52.302;8.120;2023-04-24T01:51:09;11.00;99.90
19044;DHT22;9654;52.302;8.120;2023-04-24T01:53:35;11.00;99.90
19044;DHT22;9654;52.302;8.120;2023-04-24T01:56:02;11.00;99.90
19044;DHT22;9654;52.302;8.120;2023-04-24T01:58:31;11.00;99.90
19044;DHT22;9654;52.302;8.120;2023-04-24T02:00:58;11.00;99.90
19044;DHT22;9654;52.302;8.120;2023-04-24T02:03:26;11.00;99.90
19044;DHT22;9654;52.302;8.120;2023-04-24T02:05:52;11.00;99.90
19044;DHT22;9654;52.302;8.120;2023-04-24T02:08:19;10.90;99.90
19044;DHT22;9654;52.302;8.120;2023-04-24T02:10:46;11.00;99.90
19044;DHT22;9654;52.302;8.120;2023-04-24T02:13:13;11.00;99.90
19044;DHT22;9654;52.302;8.120;2023-04-24T02:15:41;10.90;99.90
19044;DHT22;9654;52.302;8.120;2023-04-24T02:18:08;10.90;99.90
19044;DHT22;9654;52.302;8.120;2023-04-24T02:20:36;10.90;99.90
19044;DHT22;9654;52.302;8.120;2023-04-24T02:23:03;10.90;99.90
19044;DHT22;9654;52.302;8.120;2023-04-24T02:25:30;10.90;99.90
19044;DHT22;9654;52.302;8.120;2023-04-24T02:27:57;10.90;99.90
19044;DHT22;9654;52.302;8.120;2023-04-24T02:30:23;10.90;99.90
19044;DHT22;9654;52.302;8.120;2023-04-24T02:32:52;10.90;99.90
19044;DHT22;9654;52.302;8.120;2023-04-24T02:35:19;10.90;99.90
19044;DHT22;9654;52.302;8.120;2023-04-24T02:37:45;10.90;99.90
19044;DHT22;9654;52.302;8.120;2023-04-24T02:40:12;10.90;99.90
19044;DHT22;9654;52.302;8.120;2023-04-24T02:42:39;10.90;99.90
19044;DHT22;9654;52.302;8.120;2023-04-24T02:45:07;10.90;99.90
19044;DHT22;9654;52.302;8.120;2023-04-24T02:47:34;10.80;99.90
19044;DHT22;9654;52.302;8.120;2023-04-24T02:50:02;10.90;99.90
19044;DHT22;9654;52.302;8.120;2023-04-24T02:52:29;10.80;99.90
19044;DHT22;9654;52.302;8.120;2023-04-24T02:54:56;10.80;99.90
19044;DHT22;9654;52.302;8.120;2023-04-24T02:57:23;10.80;99.90
19044;DHT22;9654;52.302;8.120;2023-04-24T02:59:49;10.80;99.90
19044;DHT22;9654;52.302;8.120;2023-04-24T03:02:16;10.80;99.90
19044;DHT22;9654;52.302;8.120;2023-04-24T03:04:43;10.80;99.90
19044;DHT22;9654;52.302;8.120;2023-04-24T03:07:11;10.70;99.90
19044;DHT22;9654;52.302;8.120;2023-04-24T03:09:38;10.70;99.90
19044;DHT22;9654;52.302;8.120;2023-04-24T03:12:04;10.70;99.90
19044;DHT22;9654;52.302;8.120;2023-04-24T03:14:31;10.70;99.90
19044;DHT22;9654;52.302;8.120;2023-04-24T03:16:58;10.70;99.90
19044;DHT22;9654;52.302;8.120;2023-04-24T03:19:25;10.70;99.90
19044;DHT22;9654;52.302;8.120;2023-04-24T03:21:51;10.70;99.90
19044;DHT22;9654;52.302;8.120;2023-04-24T03:24:20;10.60;99.90
19044;DHT22;9654;52.302;8.120;2023-04-24T03:26:48;10.60;99.90
19044;DHT22;9654;52.302;8.120;2023-04-24T03:29:14;10.70;99.90
19044;DHT22;9654;52.302;8.120;2023-04-24T03:31:41;10.60;99.90
19044;DHT22;9654;52.302;8.120;2023-04-24T03:34:08;10.60;99.90
19044;DHT22;9654;52.302;8.120;2023-04-24T03:36:35;10.60;99.90
19044;DHT22;9654;52.302;8.120;2023-04-24T03:39:02;10.50;99.90
19044;DHT22;9654;52.302;8.120;2023-04-24T03:41:30;10.50;99.90
19044;DHT22;9654;52.302;8.120;2023-04-24T03:43:57;10.40;99.90
19044;DHT22;9654;52.302;8.120;2023-04-24T03:46:24;10.30;99.90
19044;DHT22;9654;52.302;8.120;2023-04-24T03:48:50;10.20;99.90
19044;DHT22;9654;52.302;8.120;2023-04-24T03:51:17;10.20;99.90
19044;DHT22;9654;52.302;8.120;2023-04-24T03:53:44;10.20;99.90
19044;DHT22;9654;52.302;8.120;2023-04-24T03:56:11;10.10;99.90
19044;DHT22;9654;52.302;8.120;2023-04-24T03:58:39;10.00;99.90
19044;DHT22;9654;52.302;8.120;2023-04-24T04:01:05;10.00;99.90
19044;DHT22;9654;52.302;8.120;2023-04-24T04:03:33;10.00;99.90
19044;DHT22;9654;52.302;8.120;2023-04-24T04:05:59;9.90;99.90
19044;DHT22;9654;52.302;8.120;2023-04-24T04:08:26;9.90;99.90
19044;DHT22;9654;52.302;8.120;2023-04-24T04:10:53;9.90;99.90
19044;DHT22;9654;52.302;8.120;2023-04-24T04:13:20;9.90;99.90
19044;DHT22;9654;52.302;8.120;2023-04-24T04:15:48;9.80;99.90
19044;DHT22;9654;52.302;8.120;2023-04-24T04:18:15;9.80;99.90
19044;DHT22;9654;52.302;8.120;2023-04-24T04:20:42;9.80;99.90
19044;DHT22;9654;52.302;8.120;2023-04-24T04:23:09;9.80;99.90
19044;DHT22;9654;52.302;8.120;2023-04-24T04:25:36;9.70;99.90
19044;DHT22;9654;52.302;8.120;2023-04-24T04:28:02;9.70;99.90
19044;DHT22;9654;52.302;8.120;2023-04-24T04:30:29;9.70;99.90
19044;DHT22;9654;52.302;8.120;2023-04-24T04:32:59;9.70;99.90
19044;DHT22;9654;52.302;8.120;2023-04-24T04:35:25;9.70;99.90
19044;DHT22;9654;52.302;8.120;2023-04-24T04:37:52;9.70;99.90
19044;DHT22;9654;52.302;8.120;2023-04-24T04:40:19;9.70;99.90
19044;DHT22;9654;52.302;8.120;2023-04-24T04:42:46;9.70;99.90
19044;DHT22;9654;52.302;8.120;2023-04-24T04:45:13;9.70;99.90
19044;DHT22;9654;52.302;8.120;2023-04-24T04:47:42;9.80;99.90
19044;DHT22;9654;52.302;8.120;2023-04-24T04:50:11;9.70;99.90
19044;DHT22;9654;52.302;8.120;2023-04-24T04:52:38;9.70;99.90
19044;DHT22;9654;52.302;8.120;2023-04-24T04:55:05;9.70;99.90
19044;DHT22;9654;52.302;8.120;2023-04-24T04:57:33;9.70;99.90
19044;DHT22;9654;52.302;8.120;2023-04-24T05:00:00;9.70;99.90
19044;DHT22;9654;52.302;8.120;2023-04-24T05:02:26;9.70;99.90
19044;DHT22;9654;52.302;8.120;2023-04-24T05:04:53;9.70;99.90
19044;DHT22;9654;52.302;8.120;2023-04-24T05:07:21;9.70;99.90
19044;DHT22;9654;52.302;8.120;2023-04-24T05:09:48;9.70;99.90
19044;DHT22;9654;52.302;8.120;2023-04-24T05:12:16;9.70;99.90
19044;DHT22;9654;52.302;8.120;2023-04-24T05:14:43;9.70;99.90
19044;DHT22;9654;52.302;8.120;2023-04-24T05:17:10;9.70;99.90
19044;DHT22;9654;52.302;8.120;2023-04-24T05:19:37;9.60;99.90
19044;DHT22;9654;52.302;8.120;2023-04-24T05:22:04;9.70;99.90
19044;DHT22;9654;52.302;8.120;2023-04-24T05:24:34;9.70;99.90
19044;DHT22;9654;52.302;8.120;2023-04-24T05:27:00;9.70;99.90
19044;DHT22;9654;52.302;8.120;2023-04-24T05:29:28;9.70;99.90
19044;DHT22;9654;52.302;8.120;2023-04-24T05:31:56;9.70;99.90
19044;DHT22;9654;52.302;8.120;2023-04-24T05:34:23;9.70;99.90
19044;DHT22;9654;52.302;8.120;2023-04-24T05:36:50;9.70;99.90
19044;DHT22;9654;52.302;8.120;2023-04-24T05:39:17;9.70;99.90
19044;DHT22;9654;52.302;8.120;2023-04-24T05:41:46;9.70;99.90
19044;DHT22;9654;52.302;8.120;2023-04-24T05:44:13;9.70;99.90
19044;DHT22;9654;52.302;8.120;2023-04-24T05:46:39;9.70;99.90
19044;DHT22;9654;52.302;8.120;2023-04-24T05:49:06;9.80;99.90
19044;DHT22;9654;52.302;8.120;2023-04-24T05:51:33;9.90;99.90
19044;DHT22;9654;52.302;8.120;2023-04-24T05:54:00;9.90;99.90
19044;DHT22;9654;52.302;8.120;2023-04-24T05:56:28;9.90;99.90
19044;DHT22;9654;52.302;8.120;2023-04-24T05:58:56;9.90;99.90
19044;DHT22;9654;52.302;8.120;2023-04-24T06:01:23;10.00;99.90
19044;DHT22;9654;52.302;8.120;2023-04-24T06:03:50;10.00;99.90
19044;DHT22;9654;52.302;8.120;2023-04-24T06:06:18;10.10;99.90
19044;DHT22;9654;52.302;8.120;2023-04-24T06:08:45;10.10;99.90
19044;DHT22;9654;52.302;8.120;2023-04-24T06:11:12;10.10;99.90
19044;DHT22;9654;52.302;8.120;2023-04-24T06:13:39;10.20;99.90
19044;DHT22;9654;52.302;8.120;2023-04-24T06:16:07;10.30;99.90
19044;DHT22;9654;52.302;8.120;2023-04-24T06:18:34;10.30;99.90
19044;DHT22;9654;52.302;8.120;2023-04-24T06:21:01;10.20;99.90
19044;DHT22;9654;52.302;8.120;2023-04-24T06:23:27;10.20;99.90
19044;DHT22;9654;52.302;8.120;2023-04-24T06:25:54;10.10;99.90
19044;DHT22;9654;52.302;8.120;2023-04-24T06:28:21;10.10;99.90
19044;DHT22;9654;52.302;8.120;2023-04-24T06:30:48;10.00;99.90
19044;DHT22;9654;52.302;8.120;2023-04-24T06:33:16;10.00;99.90
19044;DHT22;9654;52.302;8.120;2023-04-24T06:35:43;10.10;99.90
19044;DHT22;9654;52.302;8.120;2023-04-24T06:38:10;10.20;99.90
19044;DHT22;9654;52.302;8.120;2023-04-24T06:40:37;10.10;99.90
19044;DHT22;9654;52.302;8.120;2023-04-24T06:43:04;10.10;99.90
19044;DHT22;9654;52.302;8.120;2023-04-24T06:45:31;10.10;99.90
19044;DHT22;9654;52.302;8.120;2023-04-24T06:47:58;10.10;99.90
19044;DHT22;9654;52.302;8.120;2023-04-24T06:50:26;10.10;99.90
19044;DHT22;9654;52.302;8.120;2023-04-24T06:52:53;10.10;99.90
19044;DHT22;9654;52.302;8.120;2023-04-24T06:55:20;10.10;99.90
19044;DHT22;9654;52.302;8.120;2023-04-24T06:57:46;10.10;99.90
19044;DHT22;9654;52.302;8.120;2023-04-24T07:00:14;10.10;99.90
19044;DHT22;9654;52.302;8.120;2023-04-24T07:02:40;10.10;99.90
19044;DHT22;9654;52.302;8.120;2023-04-24T07:05:07;10.10;99.90
19044;DHT22;9654;52.302;8.120;2023-04-24T07:07:36;10.10;99.90
19044;DHT22;9654;52.302;8.120;2023-04-24T07:10:04;10.10;99.90
19044;DHT22;9654;52.302;8.120;2023-04-24T07:12:30;10.00;99.90
19044;DHT22;9654;52.302;8.120;2023-04-24T07:14:57;10.00;99.90
19044;DHT22;9654;52.302;8.120;2023-04-24T07:17:24;10.00;99.90
19044;DHT22;9654;52.302;8.120;2023-04-24T07:19:51;10.00;99.90
19044;DHT22;9654;52.302;8.120;2023-04-24T07:22:18;10.00;99.90
19044;DHT22;9654;52.302;8.120;2023-04-24T07:24:46;10.00;99.90
19044;DHT22;9654;52.302;8.120;2023-04-24T07:27:13;10.00;99.90
19044;DHT22;9654;52.302;8.120;2023-04-24T07:29:40;9.90;99.90
19044;DHT22;9654;52.302;8.120;2023-04-24T07:32:07;9.90;99.90
19044;DHT22;9654;52.302;8.120;2023-04-24T07:34:34;9.90;99.90
19044;DHT22;9654;52.302;8.120;2023-04-24T07:37:01;9.90;99.90
19044;DHT22;9654;52.302;8.120;2023-04-24T07:39:28;9.90;99.90
19044;DHT22;9654;52.302;8.120;2023-04-24T07:41:57;9.90;99.90
19044;DHT22;9654;52.302;8.120;2023-04-24T07:44:25;9.90;99.90
19044;DHT22;9654;52.302;8.120;2023-04-24T07:46:52;9.90;99.90
19044;DHT22;9654;52.302;8.120;2023-04-24T07:49:19;9.90;99.90
19044;DHT22;9654;52.302;8.120;2023-04-24T07:51:45;9.80;99.90
19044;DHT22;9654;52.302;8.120;2023-04-24T07:54:12;9.90;99.90
19044;DHT22;9654;52.302;8.120;2023-04-24T07:56:40;9.90;99.90
19044;DHT22;9654;52.302;8.120;2023-04-24T07:59:09;9.90;99.90
19044;DHT22;9654;52.302;8.120;2023-04-24T08:01:36;10.00;99.90
19044;DHT22;9654;52.302;8.120;2023-04-24T08:04:03;10.00;99.90
19044;DHT22;9654;52.302;8.120;2023-04-24T08:06:30;10.10;99.90
19044;DHT22;9654;52.302;8.120;2023-04-24T08:08:57;10.10;99.90
19044;DHT22;9654;52.302;8.120;2023-04-24T08:11:24;10.10;99.90
19044;DHT22;9654;52.302;8.120;2023-04-24T08:13:51;10.20;99.90
19044;DHT22;9654;52.302;8.120;2023-04-24T08:16:19;10.20;99.90
19044;DHT22;9654;52.302;8.120;2023-04-24T08:18:46;10.10;99.90
19044;DHT22;9654;52.302;8.120;2023-04-24T08:21:13;10.10;99.90
19044;DHT22;9654;52.302;8.120;2023-04-24T08:23:42;10.00;99.90
19044;DHT22;9654;52.302;8.120;2023-04-24T08:26:09;9.80;99.90
19044;DHT22;9654;52.302;8.120;2023-04-24T08:28:37;9.70;99.90
19044;DHT22;9654;52.302;8.120;2023-04-24T08:31:04;9.60;99.90
19044;DHT22;9654;52.302;8.120;2023-04-24T08:33:32;9.60;99.90
19044;DHT22;9654;52.302;8.120;2023-04-24T08:36:00;9.50;99.90
19044;DHT22;9654;52.302;8.120;2023-04-24T08:38:26;9.60;99.90
19044;DHT22;9654;52.302;8.120;2023-04-24T08:40:53;9.60;99.90
19044;DHT22;9654;52.302;8.120;2023-04-24T08:43:21;9.60;99.90
19044;DHT22;9654;52.302;8.120;2023-04-24T08:45:48;9.60;99.90
19044;DHT22;9654;52.302;8.120;2023-04-24T08:48:16;9.60;99.90
19044;DHT22;9654;52.302;8.120;2023-04-24T08:50:44;9.60;99.90
19044;DHT22;9654;52.302;8.120;2023-04-24T08:53:11;9.70;99.90
19044;DHT22;9654;52.302;8.120;2023-04-24T08:55:38;9.70;99.90
19044;DHT22;9654;52.302;8.120;2023-04-24T08:58:08;9.70;99.90
19044;DHT22;9654;52.302;8.120;2023-04-24T09:00:35;9.70;99.90
19044;DHT22;9654;52.302;8.120;2023-04-24T09:03:03;9.70;99.90
19044;DHT22;9654;52.302;8.120;2023-04-24T09:05:32;9.70;99.90
19044;DHT22;9654;52.302;8.120;2023-04-24T09:08:02;9.80;99.90
19044;DHT22;9654;52.302;8.120;2023-04-24T09:10:30;9.80;99.90
19044;DHT22;9654;52.302;8.120;2023-04-24T09:12:58;9.80;99.90
19044;DHT22;9654;52.302;8.120;2023-04-24T09:15:27;9.90;99.90
19044;DHT22;9654;52.302;8.120;2023-04-24T09:17:54;9.90;99.90
19044;DHT22;9654;52.302;8.120;2023-04-24T09:20:21;9.90;99.90
19044;DHT22;9654;52.302;8.120;2023-04-24T09:22:48;9.90;99.90
19044;DHT22;9654;52.302;8.120;2023-04-24T09:25:21;9.90;99.90
19044;DHT22;9654;52.302;8.120;2023-04-24T09:27:48;9.90;99.90
19044;DHT22;9654;52.302;8.120;2023-04-24T09:30:21;9.80;99.90
19044;DHT22;9654;52.302;8.120;2023-04-24T09:32:48;9.80;99.90
19044;DHT22;9654;52.302;8.120;2023-04-24T09:35:15;9.80;99.90
19044;DHT22;9654;52.302;8.120;2023-04-24T09:37:43;9.80;99.90
19044;DHT22;9654;52.302;8.120;2023-04-24T09:40:12;9.70;99.90
19044;DHT22;9654;52.302;8.120;2023-04-24T09:42:43;9.70;99.90
19044;DHT22;9654;52.302;8.120;2023-04-24T09:45:11;9.60;99.90
19044;DHT22;9654;52.302;8.120;2023-04-24T09:47:39;9.60;99.90
19044;DHT22;9654;52.302;8.120;2023-04-24T09:50:10;9.60;99.90
19044;DHT22;9654;52.302;8.120;2023-04-24T09:52:40;9.60;99.90
19044;DHT22;9654;52.302;8.120;2023-04-24T09:55:16;9.60;99.90
19044;DHT22;9654;52.302;8.120;2023-04-24T09:57:55;9.60;99.90
19044;DHT22;9654;52.302;8.120;2023-04-24T10:00:22;9.60;99.90
19044;DHT22;9654;52.302;8.120;2023-04-24T10:02:51;9.60;99.90
19044;DHT22;9654;52.302;8.120;2023-04-24T10:05:18;9.60;99.90
19044;DHT22;9654;52.302;8.120;2023-04-24T10:07:46;9.60;99.90
19044;DHT22;9654;52.302;8.120;2023-04-24T10:10:13;9.60;99.90
19044;DHT22;9654;52.302;8.120;2023-04-24T10:12:40;9.50;99.90
19044;DHT22;9654;52.302;8.120;2023-04-24T10:15:10;9.50;99.90
19044;DHT22;9654;52.302;8.120;2023-04-24T10:17:37;9.50;99.90
19044;DHT22;9654;52.302;8.120;2023-04-24T10:20:06;9.50;99.90
19044;DHT22;9654;52.302;8.120;2023-04-24T10:22:34;9.50;99.90
19044;DHT22;9654;52.302;8.120;2023-04-24T10:25:04;9.40;99.90
19044;DHT22;9654;52.302;8.120;2023-04-24T10:27:32;9.50;99.90
19044;DHT22;9654;52.302;8.120;2023-04-24T10:30:02;9.60;99.90
19044;DHT22;9654;52.302;8.120;2023-04-24T10:32:30;9.70;99.90
19044;DHT22;9654;52.302;8.120;2023-04-24T10:34:57;9.70;99.90
19044;DHT22;9654;52.302;8.120;2023-04-24T10:37:25;9.80;99.90
19044;DHT22;9654;52.302;8.120;2023-04-24T10:39:52;9.80;99.90
19044;DHT22;9654;52.302;8.120;2023-04-24T10:42:20;9.80;99.90
19044;DHT22;9654;52.302;8.120;2023-04-24T10:44:47;9.80;99.90
19044;DHT22;9654;52.302;8.120;2023-04-24T10:47:15;9.70;99.90
19044;DHT22;9654;52.302;8.120;2023-04-24T10:49:43;9.60;99.90
19044;DHT22;9654;52.302;8.120;2023-04-24T10:52:10;9.60;99.90
19044;DHT22;9654;52.302;8.120;2023-04-24T10:54:42;9.50;99.90
19044;DHT22;9654;52.302;8.120;2023-04-24T10:57:28;9.30;99.90
19044;DHT22;9654;52.302;8.120;2023-04-24T11:00:16;9.20;99.90
19044;DHT22;9654;52.302;8.120;2023-04-24T11:02:46;9.20;99.90
19044;DHT22;9654;52.302;8.120;2023-04-24T11:05:18;9.10;99.90
19044;DHT22;9654;52.302;8.120;2023-04-24T11:08:12;9.00;99.90
19044;DHT22;9654;52.302;8.120;2023-04-24T11:10:40;8.90;99.90
19044;DHT22;9654;52.302;8.120;2023-04-24T11:13:07;8.90;99.90
19044;DHT22;9654;52.302;8.120;2023-04-24T11:15:34;8.70;99.90
19044;DHT22;9654;52.302;8.120;2023-04-24T11:18:01;8.60;99.90
19044;DHT22;9654;52.302;8.120;2023-04-24T11:20:30;8.50;99.90
19044;DHT22;9654;52.302;8.120;2023-04-24T11:23:03;8.50;99.90
19044;DHT22;9654;52.302;8.120;2023-04-24T11:25:31;8.40;99.90
19044;DHT22;9654;52.302;8.120;2023-04-24T11:28:03;8.40;99.90
19044;DHT22;9654;52.302;8.120;2023-04-24T11:30:31;8.50;99.90
19044;DHT22;9654;52.302;8.120;2023-04-24T11:33:02;8.50;99.90
19044;DHT22;9654;52.302;8.120;2023-04-24T11:35:35;8.40;99.90
19044;DHT22;9654;52.302;8.120;2023-04-24T11:38:03;8.50;99.90
19044;DHT22;9654;52.302;8.120;2023-04-24T11:40:31;8.40;99.90
19044;DHT22;9654;52.302;8.120;2023-04-24T11:43:00;8.40;99.90
19044;DHT22;9654;52.302;8.120;2023-04-24T11:45:29;8.40;99.90
19044;DHT22;9654;52.302;8.120;2023-04-24T11:47:56;8.40;99.90
19044;DHT22;9654;52.302;8.120;2023-04-24T11:50:25;8.40;99.90
19044;DHT22;9654;52.302;8.120;2023-04-24T11:52:54;8.40;99.90
19044;DHT22;9654;52.302;8.120;2023-04-24T11:55:26;8.40;99.90
19044;DHT22;9654;52.302;8.120;2023-04-24T11:57:55;8.50;99.90
19044;DHT22;9654;52.302;8.120;2023-04-24T12:00:27;8.50;99.90
19044;DHT22;9654;52.302;8.120;2023-04-24T12:03:04;8.50;99.90
19044;DHT22;9654;52.302;8.120;2023-04-24T12:05:32;8.40;99.90
19044;DHT22;9654;52.302;8.120;2023-04-24T12:08:01;8.50;99.90
19044;DHT22;9654;52.302;8.120;2023-04-24T12:10:30;8.50;99.90
19044;DHT22;9654;52.302;8.120;2023-04-24T12:12:57;8.50;99.90
19044;DHT22;9654;52.302;8.120;2023-04-24T12:15:25;8.40;99.90
19044;DHT22;9654;52.302;8.120;2023-04-24T12:17:54;8.40;99.90
19044;DHT22;9654;52.302;8.120;2023-04-24T12:20:24;8.50;99.90
19044;DHT22;9654;52.302;8.120;2023-04-24T12:22:53;8.50;99.90
19044;DHT22;9654;52.302;8.120;2023-04-24T12:25:22;8.50;99.90
19044;DHT22;9654;52.302;8.120;2023-04-24T12:27:53;8.50;99.90
19044;DHT22;9654;52.302;8.120;2023-04-24T12:30:25;8.60;99.90
19044;DHT22;9654;52.302;8.120;2023-04-24T12:32:52;8.50;99.90
19044;DHT22;9654;52.302;8.120;2023-04-24T12:35:21;8.50;99.90
19044;DHT22;9654;52.302;8.120;2023-04-24T12:37:48;8.40;99.90
19044;DHT22;9654;52.302;8.120;2023-04-24T12:40:16;8.30;99.90
19044;DHT22;9654;52.302;8.120;2023-04-24T12:42:46;8.30;99.90
19044;DHT22;9654;52.302;8.120;2023-04-24T12:45:13;8.30;99.90
19044;DHT22;9654;52.302;8.120;2023-04-24T12:47:42;8.30;99.90
19044;DHT22;9654;52.302;8.120;2023-04-24T12:50:10;8.30;99.90
19044;DHT22;9654;52.302;8.120;2023-04-24T12:52:37;8.30;99.90
19044;DHT22;9654;52.302;8.120;2023-04-24T12:55:05;8.30;99.90
19044;DHT22;9654;52.302;8.120;2023-04-24T12:57:34;8.30;99.90
19044;DHT22;9654;52.302;8.120;2023-04-24T13:00:04;8.40;99.90
19044;DHT22;9654;52.302;8.120;2023-04-24T13:02:31;8.40;99.90
19044;DHT22;9654;52.302;8.120;2023-04-24T13:04:58;8.40;99.90
19044;DHT22;9654;52.302;8.120;2023-04-24T13:07:25;8.40;99.90
19044;DHT22;9654;52.302;8.120;2023-04-24T13:09:53;8.50;99.90
19044;DHT22;9654;52.302;8.120;2023-04-24T13:12:20;8.50;99.90
19044;DHT22;9654;52.302;8.120;2023-04-24T13:14:49;8.40;99.90
19044;DHT22;9654;52.302;8.120;2023-04-24T13:17:17;8.40;99.90
19044;DHT22;9654;52.302;8.120;2023-04-24T13:19:44;8.50;99.90
19044;DHT22;9654;52.302;8.120;2023-04-24T13:22:12;8.40;99.90
19044;DHT22;9654;52.302;8.120;2023-04-24T13:24:39;8.50;99.90
19044;DHT22;9654;52.302;8.120;2023-04-24T13:27:07;8.50;99.90
19044;DHT22;9654;52.302;8.120;2023-04-24T13:29:34;8.50;99.90
19044;DHT22;9654;52.302;8.120;2023-04-24T13:32:00;8.60;99.90
19044;DHT22;9654;52.302;8.120;2023-04-24T13:34:28;8.60;99.90
19044;DHT22;9654;52.302;8.120;2023-04-24T13:36:57;8.70;99.90
19044;DHT22;9654;52.302;8.120;2023-04-24T13:39:24;8.60;99.90
19044;DHT22;9654;52.302;8.120;2023-04-24T13:41:51;8.60;99.90
19044;DHT22;9654;52.302;8.120;2023-04-24T13:44:20;8.70;99.90
19044;DHT22;9654;52.302;8.120;2023-04-24T13:46:48;8.70;99.90
19044;DHT22;9654;52.302;8.120;2023-04-24T13:49:16;8.80;99.90
19044;DHT22;9654;52.302;8.120;2023-04-24T13:51:44;9.00;99.90
19044;DHT22;9654;52.302;8.120;2023-04-24T13:54:11;9.10;99.90
19044;DHT22;9654;52.302;8.120;2023-04-24T13:56:38;9.10;99.90
19044;DHT22;9654;52.302;8.120;2023-04-24T13:59:05;9.20;99.90
19044;DHT22;9654;52.302;8.120;2023-04-24T14:01:32;9.20;99.90
19044;DHT22;9654;52.302;8.120;2023-04-24T14:03:59;9.30;99.90
19044;DHT22;9654;52.302;8.120;2023-04-24T14:06:26;9.40;99.90
19044;DHT22;9654;52.302;8.120;2023-04-24T14:08:54;9.30;99.90
19044;DHT22;9654;52.302;8.120;2023-04-24T14:11:21;9.30;99.90
19044;DHT22;9654;52.302;8.120;2023-04-24T14:13:47;9.40;99.90
19044;DHT22;9654;52.302;8.120;2023-04-24T14:16:14;9.50;99.90
19044;DHT22;9654;52.302;8.120;2023-04-24T14:18:41;9.50;99.90
19044;DHT22;9654;52.302;8.120;2023-04-24T14:21:08;9.50;99.90
19044;DHT22;9654;52.302;8.120;2023-04-24T14:23:35;9.50;99.90
19044;DHT22;9654;52.302;8.120;2023-04-24T14:26:03;9.60;99.90
19044;DHT22;9654;52.302;8.120;2023-04-24T14:28:30;9.60;99.90
19044;DHT22;9654;52.302;8.120;2023-04-24T14:30:57;9.50;99.90
19044;DHT22;9654;52.302;8.120;2023-04-24T14:33:24;9.30;99.90
19044;DHT22;9654;52.302;8.120;2023-04-24T14:35:50;9.20;99.90
19044;DHT22;9654;52.302;8.120;2023-04-24T14:38:17;9.20;99.90
19044;DHT22;9654;52.302;8.120;2023-04-24T14:40:44;9.10;99.90
19044;DHT22;9654;52.302;8.120;2023-04-24T14:43:12;9.10;99.90
19044;DHT22;9654;52.302;8.120;2023-04-24T14:45:39;9.10;99.90
19044;DHT22;9654;52.302;8.120;2023-04-24T14:48:07;9.00;99.90
19044;DHT22;9654;52.302;8.120;2023-04-24T14:50:34;8.80;99.90
19044;DHT22;9654;52.302;8.120;2023-04-24T14:53:01;8.80;99.90
19044;DHT22;9654;52.302;8.120;2023-04-24T14:55:28;8.70;99.90
19044;DHT22;9654;52.302;8.120;2023-04-24T14:57:55;8.70;99.90
19044;DHT22;9654;52.302;8.120;2023-04-24T15:00:23;8.60;99.90
19044;DHT22;9654;52.302;8.120;2023-04-24T15:02:50;8.60;99.90
19044;DHT22;9654;52.302;8.120;2023-04-24T15:05:16;8.60;99.90
19044;DHT22;9654;52.302;8.120;2023-04-24T15:07:43;8.70;99.90
19044;DHT22;9654;52.302;8.120;2023-04-24T15:10:11;8.70;99.90
19044;DHT22;9654;52.302;8.120;2023-04-24T15:12:37;8.70;99.90
19044;DHT22;9654;52.302;8.120;2023-04-24T15:15:05;8.70;99.90
19044;DHT22;9654;52.302;8.120;2023-04-24T15:17:34;8.60;99.90
19044;DHT22;9654;52.302;8.120;2023-04-24T15:20:01;8.60;99.90
19044;DHT22;9654;52.302;8.120;2023-04-24T15:22:29;8.70;99.90
19044;DHT22;9654;52.302;8.120;2023-04-24T15:24:55;8.70;99.90
19044;DHT22;9654;52.302;8.120;2023-04-24T15:27:22;8.80;99.90
19044;DHT22;9654;52.302;8.120;2023-04-24T15:29:49;8.80;99.90
19044;DHT22;9654;52.302;8.120;2023-04-24T15:32:16;8.80;99.90
19044;DHT22;9654;52.302;8.120;2023-04-24T15:34:44;8.80;99.90
19044;DHT22;9654;52.302;8.120;2023-04-24T15:37:11;8.80;99.90
19044;DHT22;9654;52.302;8.120;2023-04-24T15:39:38;8.80;99.90
19044;DHT22;9654;52.302;8.120;2023-04-24T15:42:05;8.80;99.90
19044;DHT22;9654;52.302;8.120;2023-04-24T15:44:31;8.80;99.90
19044;DHT22;9654;52.302;8.120;2023-04-24T15:47:00;8.70;99.90
19044;DHT22;9654;52.302;8.120;2023-04-24T15:49:27;8.70;99.90
19044;DHT22;9654;52.302;8.120;2023-04-24T15:51:55;8.60;99.90
19044;DHT22;9654;52.302;8.120;2023-04-24T15:54:22;8.60;99.90
19044;DHT22;9654;52.302;8.120;2023-04-24T15:56:49;8.60;99.90